sensor_id;sensor_type;location;lat;lon;timestamp;P1;durP1;ratioP1;P2;durP2;ratioP2
58643;SDS011;44411;49.994;8.660;2023-08-31T00:02:11;2.03;;;1.27;;
58643;SDS011;44411;49.994;8.660;2023-08-31T00:04:36;2.27;;;0.80;;
58643;SDS011;44411;49.994;8.660;2023-08-31T00:07:02;1.10;;;0.52;;
58643;SDS011;44411;49.994;8.660;2023-08-31T00:09:27;0.75;;;0.55;;
58643;SDS011;44411;49.994;8.660;2023-08-31T00:11:52;0.43;;;0.13;;
58643;SDS011;44411;49.994;8.660;2023-08-31T00:14:17;0.15;;;0.15;;
58643;SDS011;44411;49.994;8.660;2023-08-31T00:16:43;0.23;;;0.13;;
58643;SDS011;44411;49.994;8.660;2023-08-31T00:19:10;0.22;;;0.15;;
58643;SDS011;44411;49.994;8.660;2023-08-31T00:21:36;3.30;;;0.57;;
58643;SDS011;44411;49.994;8.660;2023-08-31T00:24:01;3.47;;;2.07;;
58643;SDS011;44411;49.994;8.660;2023-08-31T00:26:26;8.50;;;4.67;;
58643;SDS011;44411;49.994;8.660;2023-08-31T00:28:51;11.40;;;6.57;;
58643;SDS011;44411;49.994;8.660;2023-08-31T00:31:17;8.23;;;3.70;;
58643;SDS011;44411;49.994;8.660;2023-08-31T00:33:42;5.57;;;2.20;;
58643;SDS011;44411;49.994;8.660;2023-08-31T00:36:08;6.30;;;2.95;;
58643;SDS011;44411;49.994;8.660;2023-08-31T00:38:33;3.40;;;1.80;;
58643;SDS011;44411;49.994;8.660;2023-08-31T00:40:58;3.07;;;1.50;;
58643;SDS011;44411;49.994;8.660;2023-08-31T00:43:24;1.52;;;0.95;;
58643;SDS011;44411;49.994;8.660;2023-08-31T00:45:50;1.27;;;0.95;;
58643;SDS011;44411;49.994;8.660;2023-08-31T00:48:16;0.10;;;0.10;;
58643;SDS011;44411;49.994;8.660;2023-08-31T00:50:44;0.10;;;0.10;;
58643;SDS011;44411;49.994;8.660;2023-08-31T00:53:10;0.10;;;0.10;;
58643;SDS011;44411;49.994;8.660;2023-08-31T00:55:36;0.32;;;0.32;;
58643;SDS011;44411;49.994;8.660;2023-08-31T00:58:01;0.75;;;0.57;;
58643;SDS011;44411;49.994;8.660;2023-08-31T01:00:30;0.53;;;0.33;;
58643;SDS011;44411;49.994;8.660;2023-08-31T01:03:09;0.40;;;0.40;;
58643;SDS011;44411;49.994;8.660;2023-08-31T01:05:45;0.22;;;0.22;;
58643;SDS011;44411;49.994;8.660;2023-08-31T01:08:14;0.10;;;0.10;;
58643;SDS011;44411;49.994;8.660;2023-08-31T01:13:12;0.00;;;0.00;;
58643;SDS011;44411;49.994;8.660;2023-08-31T01:15:39;0.10;;;0.10;;
58643;SDS011;44411;49.994;8.660;2023-08-31T01:18:06;0.00;;;0.00;;
58643;SDS011;44411;49.994;8.660;2023-08-31T01:20:36;0.00;;;0.00;;
58643;SDS011;44411;49.994;8.660;2023-08-31T01:23:10;0.20;;;0.20;;
58643;SDS011;44411;49.994;8.660;2023-08-31T01:25:35;0.00;;;0.00;;
58643;SDS011;44411;49.994;8.660;2023-08-31T01:28:01;0.00;;;0.00;;
58643;SDS011;44411;49.994;8.660;2023-08-31T01:30:30;0.00;;;0.00;;
58643;SDS011;44411;49.994;8.660;2023-08-31T01:32:56;0.10;;;0.10;;
58643;SDS011;44411;49.994;8.660;2023-08-31T01:35:21;0.22;;;0.10;;
58643;SDS011;44411;49.994;8.660;2023-08-31T01:37:59;0.10;;;0.10;;
58643;SDS011;44411;49.994;8.660;2023-08-31T01:42:57;0.20;;;0.20;;
58643;SDS011;44411;49.994;8.660;2023-08-31T01:45:23;0.03;;;0.03;;
58643;SDS011;44411;49.994;8.660;2023-08-31T01:47:49;0.00;;;0.00;;
58643;SDS011;44411;49.994;8.660;2023-08-31T01:50:14;0.10;;;0.10;;
58643;SDS011;44411;49.994;8.660;2023-08-31T01:52:39;0.00;;;0.00;;
58643;SDS011;44411;49.994;8.660;2023-08-31T01:55:05;0.00;;;0.00;;
58643;SDS011;44411;49.994;8.660;2023-08-31T01:57:30;0.10;;;0.10;;
58643;SDS011;44411;49.994;8.660;2023-08-31T01:59:56;0.00;;;0.00;;
58643;SDS011;44411;49.994;8.660;2023-08-31T02:02:22;0.00;;;0.00;;
58643;SDS011;44411;49.994;8.660;2023-08-31T02:04:47;0.70;;;0.30;;
58643;SDS011;44411;49.994;8.660;2023-08-31T02:07:12;0.00;;;0.00;;
58643;SDS011;44411;49.994;8.660;2023-08-31T02:09:37;0.00;;;0.00;;
58643;SDS011;44411;49.994;8.660;2023-08-31T02:12:02;0.00;;;0.00;;
58643;SDS011;44411;49.994;8.660;2023-08-31T02:14:29;0.00;;;0.00;;
58643;SDS011;44411;49.994;8.660;2023-08-31T02:16:54;0.10;;;0.10;;
58643;SDS011;44411;49.994;8.660;2023-08-31T02:19:19;0.30;;;0.30;;
58643;SDS011;44411;49.994;8.660;2023-08-31T02:21:45;0.00;;;0.00;;
58643;SDS011;44411;49.994;8.660;2023-08-31T02:24:10;0.00;;;0.00;;
58643;SDS011;44411;49.994;8.660;2023-08-31T02:26:35;0.10;;;0.10;;
58643;SDS011;44411;49.994;8.660;2023-08-31T02:29:02;0.00;;;0.00;;
58643;SDS011;44411;49.994;8.660;2023-08-31T02:31:27;0.10;;;0.10;;
58643;SDS011;44411;49.994;8.660;2023-08-31T02:33:52;0.00;;;0.00;;
58643;SDS011;44411;49.994;8.660;2023-08-31T02:36:18;0.00;;;0.00;;
58643;SDS011;44411;49.994;8.660;2023-08-31T02:38:45;0.10;;;0.10;;
58643;SDS011;44411;49.994;8.660;2023-08-31T02:41:11;0.10;;;0.10;;
58643;SDS011;44411;49.994;8.660;2023-08-31T02:43:36;0.00;;;0.00;;
58643;SDS011;44411;49.994;8.660;2023-08-31T02:46:02;0.10;;;0.10;;
58643;SDS011;44411;49.994;8.660;2023-08-31T02:48:27;0.00;;;0.00;;
58643;SDS011;44411;49.994;8.660;2023-08-31T02:50:59;0.10;;;0.10;;
58643;SDS011;44411;49.994;8.660;2023-08-31T02:55:51;0.00;;;0.00;;
58643;SDS011;44411;49.994;8.660;2023-08-31T02:58:16;0.00;;;0.00;;
58643;SDS011;44411;49.994;8.660;2023-08-31T03:00:41;0.00;;;0.00;;
58643;SDS011;44411;49.994;8.660;2023-08-31T03:03:10;0.00;;;0.00;;
58643;SDS011;44411;49.994;8.660;2023-08-31T03:05:35;0.00;;;0.00;;
58643;SDS011;44411;49.994;8.660;2023-08-31T03:08:01;0.00;;;0.00;;
58643;SDS011;44411;49.994;8.660;2023-08-31T03:10:26;0.15;;;0.15;;
58643;SDS011;44411;49.994;8.660;2023-08-31T03:12:52;0.10;;;0.10;;
58643;SDS011;44411;49.994;8.660;2023-08-31T03:15:17;0.05;;;0.05;;
58643;SDS011;44411;49.994;8.660;2023-08-31T03:17:43;0.20;;;0.20;;
58643;SDS011;44411;49.994;8.660;2023-08-31T03:20:08;0.00;;;0.00;;
58643;SDS011;44411;49.994;8.660;2023-08-31T03:22:35;0.00;;;0.00;;
58643;SDS011;44411;49.994;8.660;2023-08-31T03:25:00;0.00;;;0.00;;
58643;SDS011;44411;49.994;8.660;2023-08-31T03:27:26;0.43;;;0.30;;
58643;SDS011;44411;49.994;8.660;2023-08-31T03:29:51;0.00;;;0.00;;
58643;SDS011;44411;49.994;8.660;2023-08-31T03:32:16;0.00;;;0.00;;
58643;SDS011;44411;49.994;8.660;2023-08-31T03:34:42;0.20;;;0.10;;
58643;SDS011;44411;49.994;8.660;2023-08-31T03:37:07;0.00;;;0.00;;
58643;SDS011;44411;49.994;8.660;2023-08-31T03:39:32;0.03;;;0.03;;
58643;SDS011;44411;49.994;8.660;2023-08-31T03:41:57;0.10;;;0.10;;
58643;SDS011;44411;49.994;8.660;2023-08-31T03:44:22;0.10;;;0.10;;
58643;SDS011;44411;49.994;8.660;2023-08-31T03:46:48;0.00;;;0.00;;
58643;SDS011;44411;49.994;8.660;2023-08-31T03:49:13;0.10;;;0.10;;
58643;SDS011;44411;49.994;8.660;2023-08-31T03:51:38;0.30;;;0.30;;
58643;SDS011;44411;49.994;8.660;2023-08-31T03:54:04;0.00;;;0.00;;
58643;SDS011;44411;49.994;8.660;2023-08-31T03:56:29;0.00;;;0.00;;
58643;SDS011;44411;49.994;8.660;2023-08-31T03:58:54;0.00;;;0.00;;
58643;SDS011;44411;49.994;8.660;2023-08-31T04:01:19;0.00;;;0.00;;
58643;SDS011;44411;49.994;8.660;2023-08-31T04:03:45;0.00;;;0.00;;
58643;SDS011;44411;49.994;8.660;2023-08-31T04:06:10;0.00;;;0.00;;
58643;SDS011;44411;49.994;8.660;2023-08-31T04:08:35;0.00;;;0.00;;
58643;SDS011;44411;49.994;8.660;2023-08-31T04:11:00;0.10;;;0.10;;
58643;SDS011;44411;49.994;8.660;2023-08-31T04:13:25;0.00;;;0.00;;
58643;SDS011;44411;49.994;8.660;2023-08-31T04:15:51;0.00;;;0.00;;
58643;SDS011;44411;49.994;8.660;2023-08-31T04:18:17;0.00;;;0.00;;
58643;SDS011;44411;49.994;8.660;2023-08-31T04:20:52;0.10;;;0.10;;
58643;SDS011;44411;49.994;8.660;2023-08-31T04:23:18;0.00;;;0.00;;
58643;SDS011;44411;49.994;8.660;2023-08-31T04:25:43;0.05;;;0.05;;
58643;SDS011;44411;49.994;8.660;2023-08-31T04:28:08;0.28;;;0.28;;
58643;SDS011;44411;49.994;8.660;2023-08-31T04:30:33;0.13;;;0.10;;
58643;SDS011;44411;49.994;8.660;2023-08-31T04:32:59;0.00;;;0.00;;
58643;SDS011;44411;49.994;8.660;2023-08-31T04:35:24;0.00;;;0.00;;
58643;SDS011;44411;49.994;8.660;2023-08-31T04:37:49;0.20;;;0.10;;
58643;SDS011;44411;49.994;8.660;2023-08-31T04:40:14;0.10;;;0.10;;
58643;SDS011;44411;49.994;8.660;2023-08-31T04:42:40;0.10;;;0.10;;
58643;SDS011;44411;49.994;8.660;2023-08-31T04:45:05;0.25;;;0.20;;
58643;SDS011;44411;49.994;8.660;2023-08-31T04:47:30;0.00;;;0.00;;
58643;SDS011;44411;49.994;8.660;2023-08-31T04:49:56;0.00;;;0.00;;
58643;SDS011;44411;49.994;8.660;2023-08-31T04:52:22;0.10;;;0.10;;
58643;SDS011;44411;49.994;8.660;2023-08-31T04:54:47;0.10;;;0.10;;
58643;SDS011;44411;49.994;8.660;2023-08-31T04:57:12;0.10;;;0.10;;
58643;SDS011;44411;49.994;8.660;2023-08-31T04:59:37;0.00;;;0.00;;
58643;SDS011;44411;49.994;8.660;2023-08-31T05:02:03;0.30;;;0.30;;
58643;SDS011;44411;49.994;8.660;2023-08-31T05:04:28;0.10;;;0.10;;
58643;SDS011;44411;49.994;8.660;2023-08-31T05:06:53;0.17;;;0.17;;
58643;SDS011;44411;49.994;8.660;2023-08-31T05:09:19;0.10;;;0.10;;
58643;SDS011;44411;49.994;8.660;2023-08-31T05:11:44;0.10;;;0.10;;
58643;SDS011;44411;49.994;8.660;2023-08-31T05:14:09;0.00;;;0.00;;
58643;SDS011;44411;49.994;8.660;2023-08-31T05:16:34;0.10;;;0.10;;
58643;SDS011;44411;49.994;8.660;2023-08-31T05:18:59;0.10;;;0.10;;
58643;SDS011;44411;49.994;8.660;2023-08-31T05:21:25;0.00;;;0.00;;
58643;SDS011;44411;49.994;8.660;2023-08-31T05:23:50;0.10;;;0.10;;
58643;SDS011;44411;49.994;8.660;2023-08-31T05:26:15;0.20;;;0.13;;
58643;SDS011;44411;49.994;8.660;2023-08-31T05:28:41;0.53;;;0.50;;
58643;SDS011;44411;49.994;8.660;2023-08-31T05:31:06;0.20;;;0.20;;
58643;SDS011;44411;49.994;8.660;2023-08-31T05:33:31;0.10;;;0.10;;
58643;SDS011;44411;49.994;8.660;2023-08-31T05:35:59;0.00;;;0.00;;
58643;SDS011;44411;49.994;8.660;2023-08-31T05:38:25;0.32;;;0.32;;
58643;SDS011;44411;49.994;8.660;2023-08-31T05:40:50;0.00;;;0.00;;
58643;SDS011;44411;49.994;8.660;2023-08-31T05:43:15;0.00;;;0.00;;
58643;SDS011;44411;49.994;8.660;2023-08-31T05:45:41;0.10;;;0.10;;
58643;SDS011;44411;49.994;8.660;2023-08-31T05:48:06;0.10;;;0.10;;
58643;SDS011;44411;49.994;8.660;2023-08-31T05:50:32;0.10;;;0.10;;
58643;SDS011;44411;49.994;8.660;2023-08-31T05:52:57;0.35;;;0.35;;
58643;SDS011;44411;49.994;8.660;2023-08-31T05:55:23;0.00;;;0.00;;
58643;SDS011;44411;49.994;8.660;2023-08-31T05:57:48;0.10;;;0.10;;
58643;SDS011;44411;49.994;8.660;2023-08-31T06:00:13;0.08;;;0.05;;
58643;SDS011;44411;49.994;8.660;2023-08-31T06:02:39;0.10;;;0.10;;
58643;SDS011;44411;49.994;8.660;2023-08-31T06:05:04;0.10;;;0.10;;
58643;SDS011;44411;49.994;8.660;2023-08-31T06:07:30;0.10;;;0.10;;
58643;SDS011;44411;49.994;8.660;2023-08-31T06:09:56;0.43;;;0.33;;
58643;SDS011;44411;49.994;8.660;2023-08-31T06:12:21;0.10;;;0.10;;
58643;SDS011;44411;49.994;8.660;2023-08-31T06:14:46;0.08;;;0.08;;
58643;SDS011;44411;49.994;8.660;2023-08-31T06:17:11;0.00;;;0.00;;
58643;SDS011;44411;49.994;8.660;2023-08-31T06:19:38;0.30;;;0.20;;
58643;SDS011;44411;49.994;8.660;2023-08-31T06:22:03;0.00;;;0.00;;
58643;SDS011;44411;49.994;8.660;2023-08-31T06:24:28;0.10;;;0.10;;
58643;SDS011;44411;49.994;8.660;2023-08-31T06:26:54;0.00;;;0.00;;
58643;SDS011;44411;49.994;8.660;2023-08-31T06:29:20;0.10;;;0.10;;
58643;SDS011;44411;49.994;8.660;2023-08-31T06:31:46;0.10;;;0.10;;
58643;SDS011;44411;49.994;8.660;2023-08-31T06:34:11;0.10;;;0.10;;
58643;SDS011;44411;49.994;8.660;2023-08-31T06:36:36;0.10;;;0.10;;
58643;SDS011;44411;49.994;8.660;2023-08-31T06:39:01;0.00;;;0.00;;
58643;SDS011;44411;49.994;8.660;2023-08-31T06:41:26;0.07;;;0.07;;
58643;SDS011;44411;49.994;8.660;2023-08-31T06:43:52;0.10;;;0.10;;
58643;SDS011;44411;49.994;8.660;2023-08-31T06:46:17;0.05;;;0.05;;
58643;SDS011;44411;49.994;8.660;2023-08-31T06:48:42;0.30;;;0.30;;
58643;SDS011;44411;49.994;8.660;2023-08-31T06:51:08;0.10;;;0.10;;
58643;SDS011;44411;49.994;8.660;2023-08-31T06:53:33;0.10;;;0.10;;
58643;SDS011;44411;49.994;8.660;2023-08-31T06:55:58;0.10;;;0.10;;
58643;SDS011;44411;49.994;8.660;2023-08-31T06:58:23;0.10;;;0.10;;
58643;SDS011;44411;49.994;8.660;2023-08-31T07:00:49;0.10;;;0.10;;
58643;SDS011;44411;49.994;8.660;2023-08-31T07:03:14;0.07;;;0.07;;
58643;SDS011;44411;49.994;8.660;2023-08-31T07:05:42;0.03;;;0.03;;
58643;SDS011;44411;49.994;8.660;2023-08-31T07:08:08;0.32;;;0.30;;
58643;SDS011;44411;49.994;8.660;2023-08-31T07:10:33;0.63;;;0.30;;
58643;SDS011;44411;49.994;8.660;2023-08-31T07:13:01;0.00;;;0.00;;
58643;SDS011;44411;49.994;8.660;2023-08-31T07:15:26;0.10;;;0.10;;
58643;SDS011;44411;49.994;8.660;2023-08-31T07:17:53;0.40;;;0.32;;
58643;SDS011;44411;49.994;8.660;2023-08-31T07:20:18;0.35;;;0.30;;
58643;SDS011;44411;49.994;8.660;2023-08-31T07:22:43;0.10;;;0.10;;
58643;SDS011;44411;49.994;8.660;2023-08-31T07:25:08;0.10;;;0.10;;
58643;SDS011;44411;49.994;8.660;2023-08-31T07:27:34;0.35;;;0.28;;
58643;SDS011;44411;49.994;8.660;2023-08-31T07:29:59;0.10;;;0.10;;
58643;SDS011;44411;49.994;8.660;2023-08-31T07:32:24;0.10;;;0.10;;
58643;SDS011;44411;49.994;8.660;2023-08-31T07:34:50;0.20;;;0.20;;
58643;SDS011;44411;49.994;8.660;2023-08-31T07:37:15;0.50;;;0.50;;
58643;SDS011;44411;49.994;8.660;2023-08-31T07:39:40;0.63;;;0.63;;
58643;SDS011;44411;49.994;8.660;2023-08-31T07:42:05;0.03;;;0.03;;
58643;SDS011;44411;49.994;8.660;2023-08-31T07:44:31;0.10;;;0.10;;
58643;SDS011;44411;49.994;8.660;2023-08-31T07:46:56;0.03;;;0.03;;
58643;SDS011;44411;49.994;8.660;2023-08-31T07:49:21;0.10;;;0.10;;
58643;SDS011;44411;49.994;8.660;2023-08-31T07:51:47;0.10;;;0.10;;
58643;SDS011;44411;49.994;8.660;2023-08-31T07:54:18;1.10;;;0.53;;
58643;SDS011;44411;49.994;8.660;2023-08-31T07:56:44;0.00;;;0.00;;
58643;SDS011;44411;49.994;8.660;2023-08-31T07:59:10;0.10;;;0.10;;
58643;SDS011;44411;49.994;8.660;2023-08-31T08:01:35;0.10;;;0.10;;
58643;SDS011;44411;49.994;8.660;2023-08-31T08:04:00;0.10;;;0.10;;
58643;SDS011;44411;49.994;8.660;2023-08-31T08:06:26;0.10;;;0.10;;
58643;SDS011;44411;49.994;8.660;2023-08-31T08:08:51;0.50;;;0.50;;
58643;SDS011;44411;49.994;8.660;2023-08-31T08:11:16;0.25;;;0.17;;
58643;SDS011;44411;49.994;8.660;2023-08-31T08:13:41;0.00;;;0.00;;
58643;SDS011;44411;49.994;8.660;2023-08-31T08:16:07;0.10;;;0.10;;
58643;SDS011;44411;49.994;8.660;2023-08-31T08:18:33;0.00;;;0.00;;
58643;SDS011;44411;49.994;8.660;2023-08-31T08:20:59;0.00;;;0.00;;
58643;SDS011;44411;49.994;8.660;2023-08-31T08:23:24;0.00;;;0.00;;
58643;SDS011;44411;49.994;8.660;2023-08-31T08:25:49;0.00;;;0.00;;
58643;SDS011;44411;49.994;8.660;2023-08-31T08:28:14;0.27;;;0.23;;
58643;SDS011;44411;49.994;8.660;2023-08-31T08:30:40;0.57;;;0.57;;
58643;SDS011;44411;49.994;8.660;2023-08-31T08:33:05;0.00;;;0.00;;
58643;SDS011;44411;49.994;8.660;2023-08-31T08:35:30;0.00;;;0.00;;
58643;SDS011;44411;49.994;8.660;2023-08-31T08:37:55;1.08;;;0.20;;
58643;SDS011;44411;49.994;8.660;2023-08-31T08:40:20;0.00;;;0.00;;
58643;SDS011;44411;49.994;8.660;2023-08-31T08:42:46;0.00;;;0.00;;
58643;SDS011;44411;49.994;8.660;2023-08-31T08:45:15;0.00;;;0.00;;
58643;SDS011;44411;49.994;8.660;2023-08-31T08:47:40;0.10;;;0.10;;
58643;SDS011;44411;49.994;8.660;2023-08-31T08:50:07;0.00;;;0.00;;
58643;SDS011;44411;49.994;8.660;2023-08-31T08:52:32;0.40;;;0.40;;
58643;SDS011;44411;49.994;8.660;2023-08-31T08:54:59;0.20;;;0.20;;
58643;SDS011;44411;49.994;8.660;2023-08-31T08:57:25;0.00;;;0.00;;
58643;SDS011;44411;49.994;8.660;2023-08-31T08:59:51;0.00;;;0.00;;
58643;SDS011;44411;49.994;8.660;2023-08-31T09:02:16;0.30;;;0.30;;
58643;SDS011;44411;49.994;8.660;2023-08-31T09:04:41;0.20;;;0.20;;
58643;SDS011;44411;49.994;8.660;2023-08-31T09:07:06;0.00;;;0.00;;
58643;SDS011;44411;49.994;8.660;2023-08-31T09:09:32;0.00;;;0.00;;
58643;SDS011;44411;49.994;8.660;2023-08-31T09:12:05;0.00;;;0.00;;
58643;SDS011;44411;49.994;8.660;2023-08-31T09:14:30;0.05;;;0.05;;
58643;SDS011;44411;49.994;8.660;2023-08-31T09:16:56;0.00;;;0.00;;
58643;SDS011;44411;49.994;8.660;2023-08-31T09:19:22;0.13;;;0.07;;
58643;SDS011;44411;49.994;8.660;2023-08-31T09:21:47;0.03;;;0.03;;
58643;SDS011;44411;49.994;8.660;2023-08-31T09:24:13;0.08;;;0.03;;
58643;SDS011;44411;49.994;8.660;2023-08-31T09:26:39;0.00;;;0.00;;
58643;SDS011;44411;49.994;8.660;2023-08-31T09:29:07;0.65;;;0.43;;
58643;SDS011;44411;49.994;8.660;2023-08-31T09:31:33;0.00;;;0.00;;
58643;SDS011;44411;49.994;8.660;2023-08-31T09:33:59;0.20;;;0.10;;
58643;SDS011;44411;49.994;8.660;2023-08-31T09:36:26;0.00;;;0.00;;
58643;SDS011;44411;49.994;8.660;2023-08-31T09:38:51;0.43;;;0.25;;
58643;SDS011;44411;49.994;8.660;2023-08-31T09:41:16;0.00;;;0.00;;
58643;SDS011;44411;49.994;8.660;2023-08-31T09:43:42;0.10;;;0.10;;
58643;SDS011;44411;49.994;8.660;2023-08-31T09:46:07;0.10;;;0.10;;
58643;SDS011;44411;49.994;8.660;2023-08-31T09:48:33;0.00;;;0.00;;
58643;SDS011;44411;49.994;8.660;2023-08-31T09:51:02;0.00;;;0.00;;
58643;SDS011;44411;49.994;8.660;2023-08-31T09:53:29;0.00;;;0.00;;
58643;SDS011;44411;49.994;8.660;2023-08-31T09:55:54;0.05;;;0.05;;
58643;SDS011;44411;49.994;8.660;2023-08-31T09:58:21;0.00;;;0.00;;
58643;SDS011;44411;49.994;8.660;2023-08-31T10:00:48;0.17;;;0.10;;
58643;SDS011;44411;49.994;8.660;2023-08-31T10:03:14;0.00;;;0.00;;
58643;SDS011;44411;49.994;8.660;2023-08-31T10:05:40;2.53;;;0.47;;
58643;SDS011;44411;49.994;8.660;2023-08-31T10:08:05;0.00;;;0.00;;
58643;SDS011;44411;49.994;8.660;2023-08-31T10:10:32;0.63;;;0.55;;
58643;SDS011;44411;49.994;8.660;2023-08-31T10:12:58;0.03;;;0.00;;
58643;SDS011;44411;49.994;8.660;2023-08-31T10:15:24;0.52;;;0.35;;
58643;SDS011;44411;49.994;8.660;2023-08-31T10:17:51;0.00;;;0.00;;
58643;SDS011;44411;49.994;8.660;2023-08-31T10:20:16;0.10;;;0.10;;
58643;SDS011;44411;49.994;8.660;2023-08-31T10:22:42;0.00;;;0.00;;
58643;SDS011;44411;49.994;8.660;2023-08-31T10:25:07;0.03;;;0.03;;
58643;SDS011;44411;49.994;8.660;2023-08-31T10:27:36;0.00;;;0.00;;
58643;SDS011;44411;49.994;8.660;2023-08-31T10:32:45;0.00;;;0.00;;
58643;SDS011;44411;49.994;8.660;2023-08-31T10:35:11;0.00;;;0.00;;
58643;SDS011;44411;49.994;8.660;2023-08-31T10:37:39;0.40;;;0.40;;
58643;SDS011;44411;49.994;8.660;2023-08-31T10:40:10;0.05;;;0.05;;
58643;SDS011;44411;49.994;8.660;2023-08-31T10:42:46;0.00;;;0.00;;
58643;SDS011;44411;49.994;8.660;2023-08-31T10:45:12;0.00;;;0.00;;
58643;SDS011;44411;49.994;8.660;2023-08-31T10:47:38;0.00;;;0.00;;
58643;SDS011;44411;49.994;8.660;2023-08-31T10:50:17;0.00;;;0.00;;
58643;SDS011;44411;49.994;8.660;2023-08-31T10:52:44;0.03;;;0.00;;
58643;SDS011;44411;49.994;8.660;2023-08-31T10:55:09;0.03;;;0.03;;
58643;SDS011;44411;49.994;8.660;2023-08-31T10:57:35;0.00;;;0.00;;
58643;SDS011;44411;49.994;8.660;2023-08-31T11:00:00;0.00;;;0.00;;
58643;SDS011;44411;49.994;8.660;2023-08-31T11:02:42;0.00;;;0.00;;
58643;SDS011;44411;49.994;8.660;2023-08-31T11:05:08;0.00;;;0.00;;
58643;SDS011;44411;49.994;8.660;2023-08-31T11:07:34;0.03;;;0.00;;
58643;SDS011;44411;49.994;8.660;2023-08-31T11:12:35;0.00;;;0.00;;
58643;SDS011;44411;49.994;8.660;2023-08-31T11:15:00;0.03;;;0.03;;
58643;SDS011;44411;49.994;8.660;2023-08-31T11:17:25;0.00;;;0.00;;
58643;SDS011;44411;49.994;8.660;2023-08-31T11:19:50;0.00;;;0.00;;
58643;SDS011;44411;49.994;8.660;2023-08-31T11:22:16;0.10;;;0.10;;
58643;SDS011;44411;49.994;8.660;2023-08-31T11:24:41;0.00;;;0.00;;
58643;SDS011;44411;49.994;8.660;2023-08-31T11:27:09;0.00;;;0.00;;
58643;SDS011;44411;49.994;8.660;2023-08-31T11:29:38;0.00;;;0.00;;
58643;SDS011;44411;49.994;8.660;2023-08-31T11:32:04;0.00;;;0.00;;
58643;SDS011;44411;49.994;8.660;2023-08-31T11:34:29;0.00;;;0.00;;
58643;SDS011;44411;49.994;8.660;2023-08-31T11:36:54;0.30;;;0.30;;
58643;SDS011;44411;49.994;8.660;2023-08-31T11:39:20;0.00;;;0.00;;
58643;SDS011;44411;49.994;8.660;2023-08-31T11:41:45;0.00;;;0.00;;
58643;SDS011;44411;49.994;8.660;2023-08-31T11:44:13;0.00;;;0.00;;
58643;SDS011;44411;49.994;8.660;2023-08-31T11:46:41;0.00;;;0.00;;
58643;SDS011;44411;49.994;8.660;2023-08-31T11:49:07;0.00;;;0.00;;
58643;SDS011;44411;49.994;8.660;2023-08-31T11:51:33;0.00;;;0.00;;
58643;SDS011;44411;49.994;8.660;2023-08-31T11:53:59;0.00;;;0.00;;
58643;SDS011;44411;49.994;8.660;2023-08-31T11:56:24;0.00;;;0.00;;
58643;SDS011;44411;49.994;8.660;2023-08-31T11:58:53;0.00;;;0.00;;
58643;SDS011;44411;49.994;8.660;2023-08-31T12:01:19;0.00;;;0.00;;
58643;SDS011;44411;49.994;8.660;2023-08-31T12:03:45;0.28;;;0.28;;
58643;SDS011;44411;49.994;8.660;2023-08-31T12:06:10;0.00;;;0.00;;
58643;SDS011;44411;49.994;8.660;2023-08-31T12:08:36;0.20;;;0.05;;
58643;SDS011;44411;49.994;8.660;2023-08-31T12:11:02;0.30;;;0.25;;
58643;SDS011;44411;49.994;8.660;2023-08-31T12:13:27;0.00;;;0.00;;
58643;SDS011;44411;49.994;8.660;2023-08-31T12:15:55;0.00;;;0.00;;
58643;SDS011;44411;49.994;8.660;2023-08-31T12:18:20;0.32;;;0.32;;
58643;SDS011;44411;49.994;8.660;2023-08-31T12:20:46;0.00;;;0.00;;
58643;SDS011;44411;49.994;8.660;2023-08-31T12:23:12;0.00;;;0.00;;
58643;SDS011;44411;49.994;8.660;2023-08-31T12:25:44;0.03;;;0.00;;
58643;SDS011;44411;49.994;8.660;2023-08-31T12:28:09;0.00;;;0.00;;
58643;SDS011;44411;49.994;8.660;2023-08-31T12:30:35;0.00;;;0.00;;
58643;SDS011;44411;49.994;8.660;2023-08-31T12:33:00;0.45;;;0.22;;
58643;SDS011;44411;49.994;8.660;2023-08-31T12:35:25;0.00;;;0.00;;
58643;SDS011;44411;49.994;8.660;2023-08-31T12:37:50;0.00;;;0.00;;
58643;SDS011;44411;49.994;8.660;2023-08-31T12:40:15;0.00;;;0.00;;
58643;SDS011;44411;49.994;8.660;2023-08-31T12:42:44;0.00;;;0.00;;
58643;SDS011;44411;49.994;8.660;2023-08-31T12:45:09;0.00;;;0.00;;
58643;SDS011;44411;49.994;8.660;2023-08-31T12:47:34;0.00;;;0.00;;
58643;SDS011;44411;49.994;8.660;2023-08-31T12:49:59;0.00;;;0.00;;
58643;SDS011;44411;49.994;8.660;2023-08-31T12:52:27;0.28;;;0.28;;
58643;SDS011;44411;49.994;8.660;2023-08-31T12:54:52;0.00;;;0.00;;
58643;SDS011;44411;49.994;8.660;2023-08-31T12:57:17;0.00;;;0.00;;
58643;SDS011;44411;49.994;8.660;2023-08-31T12:59:43;0.00;;;0.00;;
58643;SDS011;44411;49.994;8.660;2023-08-31T13:02:08;0.00;;;0.00;;
58643;SDS011;44411;49.994;8.660;2023-08-31T13:04:35;0.00;;;0.00;;
58643;SDS011;44411;49.994;8.660;2023-08-31T13:07:01;0.00;;;0.00;;
58643;SDS011;44411;49.994;8.660;2023-08-31T13:09:26;0.10;;;0.00;;
58643;SDS011;44411;49.994;8.660;2023-08-31T13:11:53;0.00;;;0.00;;
58643;SDS011;44411;49.994;8.660;2023-08-31T13:14:18;0.05;;;0.05;;
58643;SDS011;44411;49.994;8.660;2023-08-31T13:16:43;0.00;;;0.00;;
58643;SDS011;44411;49.994;8.660;2023-08-31T13:19:09;0.00;;;0.00;;
58643;SDS011;44411;49.994;8.660;2023-08-31T13:21:34;0.00;;;0.00;;
58643;SDS011;44411;49.994;8.660;2023-08-31T13:23:59;0.00;;;0.00;;
58643;SDS011;44411;49.994;8.660;2023-08-31T13:26:25;0.00;;;0.00;;
58643;SDS011;44411;49.994;8.660;2023-08-31T13:28:50;0.10;;;0.10;;
58643;SDS011;44411;49.994;8.660;2023-08-31T13:31:15;2.33;;;0.00;;
58643;SDS011;44411;49.994;8.660;2023-08-31T13:33:41;0.00;;;0.00;;
58643;SDS011;44411;49.994;8.660;2023-08-31T13:36:07;0.10;;;0.10;;
58643;SDS011;44411;49.994;8.660;2023-08-31T13:38:34;0.90;;;0.63;;
58643;SDS011;44411;49.994;8.660;2023-08-31T13:40:59;0.00;;;0.00;;
58643;SDS011;44411;49.994;8.660;2023-08-31T13:43:24;0.05;;;0.05;;
58643;SDS011;44411;49.994;8.660;2023-08-31T13:45:50;0.00;;;0.00;;
58643;SDS011;44411;49.994;8.660;2023-08-31T13:48:16;0.00;;;0.00;;
58643;SDS011;44411;49.994;8.660;2023-08-31T13:50:41;0.00;;;0.00;;
58643;SDS011;44411;49.994;8.660;2023-08-31T13:53:06;0.00;;;0.00;;
58643;SDS011;44411;49.994;8.660;2023-08-31T13:55:31;0.00;;;0.00;;
58643;SDS011;44411;49.994;8.660;2023-08-31T13:58:03;0.00;;;0.00;;
58643;SDS011;44411;49.994;8.660;2023-08-31T14:00:28;0.00;;;0.00;;
58643;SDS011;44411;49.994;8.660;2023-08-31T14:02:54;0.10;;;0.10;;
58643;SDS011;44411;49.994;8.660;2023-08-31T14:05:19;0.00;;;0.00;;
58643;SDS011;44411;49.994;8.660;2023-08-31T14:07:44;0.20;;;0.03;;
58643;SDS011;44411;49.994;8.660;2023-08-31T14:10:10;0.00;;;0.00;;
58643;SDS011;44411;49.994;8.660;2023-08-31T14:12:35;0.15;;;0.15;;
58643;SDS011;44411;49.994;8.660;2023-08-31T14:15:00;0.00;;;0.00;;
58643;SDS011;44411;49.994;8.660;2023-08-31T14:17:29;0.00;;;0.00;;
58643;SDS011;44411;49.994;8.660;2023-08-31T14:19:54;0.00;;;0.00;;
58643;SDS011;44411;49.994;8.660;2023-08-31T14:22:20;0.00;;;0.00;;
58643;SDS011;44411;49.994;8.660;2023-08-31T14:24:45;0.00;;;0.00;;
58643;SDS011;44411;49.994;8.660;2023-08-31T14:27:11;0.00;;;0.00;;
58643;SDS011;44411;49.994;8.660;2023-08-31T14:29:36;0.00;;;0.00;;
58643;SDS011;44411;49.994;8.660;2023-08-31T14:32:01;0.05;;;0.03;;
58643;SDS011;44411;49.994;8.660;2023-08-31T14:34:27;0.00;;;0.00;;
58643;SDS011;44411;49.994;8.660;2023-08-31T14:36:52;0.00;;;0.00;;
58643;SDS011;44411;49.994;8.660;2023-08-31T14:39:22;0.00;;;0.00;;
58643;SDS011;44411;49.994;8.660;2023-08-31T14:41:48;0.00;;;0.00;;
58643;SDS011;44411;49.994;8.660;2023-08-31T14:44:13;0.03;;;0.03;;
58643;SDS011;44411;49.994;8.660;2023-08-31T14:46:39;0.20;;;0.00;;
58643;SDS011;44411;49.994;8.660;2023-08-31T14:49:04;0.00;;;0.00;;
58643;SDS011;44411;49.994;8.660;2023-08-31T14:51:29;0.00;;;0.00;;
58643;SDS011;44411;49.994;8.660;2023-08-31T14:53:55;0.00;;;0.00;;